sensor_id;sensor_type;location;lat;lon;timestamp;temperature;humidity
47779;DHT22;33538;48.432;11.350;2022-09-27T00:03:09;13.20;91.50
47779;DHT22;33538;48.432;11.350;2022-09-27T00:05:37;13.20;91.70
47779;DHT22;33538;48.432;11.350;2022-09-27T00:08:04;13.20;92.10
47779;DHT22;33538;48.432;11.350;2022-09-27T00:10:31;13.10;92.50
47779;DHT22;33538;48.432;11.350;2022-09-27T00:12:58;13.10;93.00
47779;DHT22;33538;48.432;11.350;2022-09-27T00:15:25;13.10;93.40
47779;DHT22;33538;48.432;11.350;2022-09-27T00:17:51;13.00;93.90
47779;DHT22;33538;48.432;11.350;2022-09-27T00:20:20;13.00;94.00
47779;DHT22;33538;48.432;11.350;2022-09-27T00:22:47;13.00;94.10
47779;DHT22;33538;48.432;11.350;2022-09-27T00:25:16;13.00;94.40
47779;DHT22;33538;48.432;11.350;2022-09-27T00:27:43;13.00;94.90
47779;DHT22;33538;48.432;11.350;2022-09-27T00:30:11;12.90;94.90
47779;DHT22;33538;48.432;11.350;2022-09-27T00:32:38;12.90;95.00
47779;DHT22;33538;48.432;11.350;2022-09-27T00:35:05;12.90;95.30
47779;DHT22;33538;48.432;11.350;2022-09-27T00:37:34;12.90;95.70
47779;DHT22;33538;48.432;11.350;2022-09-27T00:40:01;12.90;95.70
47779;DHT22;33538;48.432;11.350;2022-09-27T00:42:28;12.90;95.60
47779;DHT22;33538;48.432;11.350;2022-09-27T00:45:02;12.90;95.40
47779;DHT22;33538;48.432;11.350;2022-09-27T00:47:38;12.90;95.40
47779;DHT22;33538;48.432;11.350;2022-09-27T00:50:13;12.90;95.80
47779;DHT22;33538;48.432;11.350;2022-09-27T00:52:48;12.90;95.50
47779;DHT22;33538;48.432;11.350;2022-09-27T00:55:19;13.00;95.90
47779;DHT22;33538;48.432;11.350;2022-09-27T00:57:48;12.90;96.20
47779;DHT22;33538;48.432;11.350;2022-09-27T01:00:16;12.90;96.30
47779;DHT22;33538;48.432;11.350;2022-09-27T01:02:45;12.80;96.50
47779;DHT22;33538;48.432;11.350;2022-09-27T01:05:14;12.90;96.30
47779;DHT22;33538;48.432;11.350;2022-09-27T01:07:41;12.90;95.90
47779;DHT22;33538;48.432;11.350;2022-09-27T01:10:10;12.90;96.50
47779;DHT22;33538;48.432;11.350;2022-09-27T01:12:44;12.90;96.60
47779;DHT22;33538;48.432;11.350;2022-09-27T01:15:22;12.90;96.50
47779;DHT22;33538;48.432;11.350;2022-09-27T01:18:01;12.80;96.60
47779;DHT22;33538;48.432;11.350;2022-09-27T01:23:52;12.80;97.00
47779;DHT22;33538;48.432;11.350;2022-09-27T01:26:36;12.90;96.70
47779;DHT22;33538;48.432;11.350;2022-09-27T01:29:12;12.80;97.20
47779;DHT22;33538;48.432;11.350;2022-09-27T01:31:49;12.80;97.20
47779;DHT22;33538;48.432;11.350;2022-09-27T01:34:25;12.80;97.70
47779;DHT22;33538;48.432;11.350;2022-09-27T01:36:59;12.80;97.50
47779;DHT22;33538;48.432;11.350;2022-09-27T01:39:35;12.80;97.80
47779;DHT22;33538;48.432;11.350;2022-09-27T01:42:09;12.80;97.80
47779;DHT22;33538;48.432;11.350;2022-09-27T01:44:39;12.80;97.70
47779;DHT22;33538;48.432;11.350;2022-09-27T01:47:15;12.80;97.70
47779;DHT22;33538;48.432;11.350;2022-09-27T01:49:47;12.80;97.40
47779;DHT22;33538;48.432;11.350;2022-09-27T01:52:21;12.80;97.20
47779;DHT22;33538;48.432;11.350;2022-09-27T01:54:51;12.80;97.20
47779;DHT22;33538;48.432;11.350;2022-09-27T01:57:23;12.80;97.40
47779;DHT22;33538;48.432;11.350;2022-09-27T01:59:53;12.80;97.20
47779;DHT22;33538;48.432;11.350;2022-09-27T02:02:25;12.90;97.10
47779;DHT22;33538;48.432;11.350;2022-09-27T02:04:55;12.90;96.70
47779;DHT22;33538;48.432;11.350;2022-09-27T02:07:26;12.90;96.60
47779;DHT22;33538;48.432;11.350;2022-09-27T02:09:57;12.90;96.80
47779;DHT22;33538;48.432;11.350;2022-09-27T02:12:26;12.90;96.50
47779;DHT22;33538;48.432;11.350;2022-09-27T02:14:55;12.90;96.60
47779;DHT22;33538;48.432;11.350;2022-09-27T02:17:29;12.90;96.60
47779;DHT22;33538;48.432;11.350;2022-09-27T02:20:05;12.90;96.60
47779;DHT22;33538;48.432;11.350;2022-09-27T02:22:35;12.90;96.70
47779;DHT22;33538;48.432;11.350;2022-09-27T02:25:12;12.80;96.70
47779;DHT22;33538;48.432;11.350;2022-09-27T02:27:46;12.80;97.20
47779;DHT22;33538;48.432;11.350;2022-09-27T02:30:16;12.80;97.40
47779;DHT22;33538;48.432;11.350;2022-09-27T02:32:44;12.70;97.40
47779;DHT22;33538;48.432;11.350;2022-09-27T02:35:14;12.70;97.30
47779;DHT22;33538;48.432;11.350;2022-09-27T02:37:42;12.80;97.20
47779;DHT22;33538;48.432;11.350;2022-09-27T02:40:09;12.70;97.20
47779;DHT22;33538;48.432;11.350;2022-09-27T02:42:37;12.70;97.10
47779;DHT22;33538;48.432;11.350;2022-09-27T02:45:05;12.80;97.20
47779;DHT22;33538;48.432;11.350;2022-09-27T02:47:58;12.70;97.30
47779;DHT22;33538;48.432;11.350;2022-09-27T02:53:28;12.70;97.70
47779;DHT22;33538;48.432;11.350;2022-09-27T02:56:02;12.70;97.30
47779;DHT22;33538;48.432;11.350;2022-09-27T02:58:43;12.70;97.40
47779;DHT22;33538;48.432;11.350;2022-09-27T03:01:18;12.70;97.40
47779;DHT22;33538;48.432;11.350;2022-09-27T03:03:52;12.70;97.50
47779;DHT22;33538;48.432;11.350;2022-09-27T03:06:22;12.70;97.60
47779;DHT22;33538;48.432;11.350;2022-09-27T03:08:49;12.70;97.50
47779;DHT22;33538;48.432;11.350;2022-09-27T03:11:16;12.70;97.70
47779;DHT22;33538;48.432;11.350;2022-09-27T03:13:43;12.70;97.70
47779;DHT22;33538;48.432;11.350;2022-09-27T03:16:30;12.70;97.80
47779;DHT22;33538;48.432;11.350;2022-09-27T03:18:58;12.70;97.90
47779;DHT22;33538;48.432;11.350;2022-09-27T03:21:25;12.70;98.10
47779;DHT22;33538;48.432;11.350;2022-09-27T03:23:52;12.70;97.90
47779;DHT22;33538;48.432;11.350;2022-09-27T03:26:18;12.70;98.00
47779;DHT22;33538;48.432;11.350;2022-09-27T03:28:45;12.60;98.10
47779;DHT22;33538;48.432;11.350;2022-09-27T03:31:12;12.60;98.20
47779;DHT22;33538;48.432;11.350;2022-09-27T03:33:40;12.60;98.00
47779;DHT22;33538;48.432;11.350;2022-09-27T03:36:09;12.70;97.90
47779;DHT22;33538;48.432;11.350;2022-09-27T03:38:35;12.70;97.70
47779;DHT22;33538;48.432;11.350;2022-09-27T03:41:02;12.70;97.80
47779;DHT22;33538;48.432;11.350;2022-09-27T03:43:29;12.70;97.70
47779;DHT22;33538;48.432;11.350;2022-09-27T03:45:56;12.60;98.00
47779;DHT22;33538;48.432;11.350;2022-09-27T03:48:23;12.60;98.00
47779;DHT22;33538;48.432;11.350;2022-09-27T03:50:53;12.70;97.80
47779;DHT22;33538;48.432;11.350;2022-09-27T03:53:22;12.70;97.90
47779;DHT22;33538;48.432;11.350;2022-09-27T03:55:48;12.60;98.10
47779;DHT22;33538;48.432;11.350;2022-09-27T03:58:15;12.60;98.10
47779;DHT22;33538;48.432;11.350;2022-09-27T04:00:44;12.60;98.40
47779;DHT22;33538;48.432;11.350;2022-09-27T04:03:11;12.60;98.40
47779;DHT22;33538;48.432;11.350;2022-09-27T04:05:38;12.50;98.50
47779;DHT22;33538;48.432;11.350;2022-09-27T04:08:05;12.50;98.30
47779;DHT22;33538;48.432;11.350;2022-09-27T04:10:33;12.50;98.40
47779;DHT22;33538;48.432;11.350;2022-09-27T04:13:00;12.50;98.60
47779;DHT22;33538;48.432;11.350;2022-09-27T04:15:27;12.50;98.60
47779;DHT22;33538;48.432;11.350;2022-09-27T04:17:54;12.40;98.40
47779;DHT22;33538;48.432;11.350;2022-09-27T04:20:20;12.50;98.60
47779;DHT22;33538;48.432;11.350;2022-09-27T04:22:47;12.40;98.70
47779;DHT22;33538;48.432;11.350;2022-09-27T04:25:14;12.40;98.70
47779;DHT22;33538;48.432;11.350;2022-09-27T04:27:45;12.40;98.60
47779;DHT22;33538;48.432;11.350;2022-09-27T04:30:12;12.40;98.70
47779;DHT22;33538;48.432;11.350;2022-09-27T04:32:40;12.40;98.50
47779;DHT22;33538;48.432;11.350;2022-09-27T04:35:08;12.40;98.40
47779;DHT22;33538;48.432;11.350;2022-09-27T04:37:35;12.50;98.10
47779;DHT22;33538;48.432;11.350;2022-09-27T04:40:02;12.50;98.00
47779;DHT22;33538;48.432;11.350;2022-09-27T04:42:29;12.50;98.00
47779;DHT22;33538;48.432;11.350;2022-09-27T04:44:57;12.50;98.00
47779;DHT22;33538;48.432;11.350;2022-09-27T04:47:24;12.50;98.00
47779;DHT22;33538;48.432;11.350;2022-09-27T04:49:51;12.50;98.00
47779;DHT22;33538;48.432;11.350;2022-09-27T04:52:17;12.50;98.10
47779;DHT22;33538;48.432;11.350;2022-09-27T04:54:44;12.50;98.20
47779;DHT22;33538;48.432;11.350;2022-09-27T04:57:11;12.50;98.40
47779;DHT22;33538;48.432;11.350;2022-09-27T04:59:37;12.40;98.20
47779;DHT22;33538;48.432;11.350;2022-09-27T05:02:05;12.50;98.00
47779;DHT22;33538;48.432;11.350;2022-09-27T05:04:32;12.50;97.90
47779;DHT22;33538;48.432;11.350;2022-09-27T05:06:59;12.50;98.10
47779;DHT22;33538;48.432;11.350;2022-09-27T05:09:26;12.50;98.10
47779;DHT22;33538;48.432;11.350;2022-09-27T05:11:53;12.50;97.80
47779;DHT22;33538;48.432;11.350;2022-09-27T05:14:19;12.50;97.60
47779;DHT22;33538;48.432;11.350;2022-09-27T05:16:46;12.50;97.70
47779;DHT22;33538;48.432;11.350;2022-09-27T05:19:15;12.50;97.70
47779;DHT22;33538;48.432;11.350;2022-09-27T05:21:42;12.50;97.70
47779;DHT22;33538;48.432;11.350;2022-09-27T05:24:08;12.50;97.60
47779;DHT22;33538;48.432;11.350;2022-09-27T05:26:35;12.50;97.70
47779;DHT22;33538;48.432;11.350;2022-09-27T05:29:02;12.50;97.40
47779;DHT22;33538;48.432;11.350;2022-09-27T05:31:29;12.50;97.50
47779;DHT22;33538;48.432;11.350;2022-09-27T05:33:56;12.50;97.70
47779;DHT22;33538;48.432;11.350;2022-09-27T05:36:24;12.50;97.70
47779;DHT22;33538;48.432;11.350;2022-09-27T05:38:51;12.50;97.50
47779;DHT22;33538;48.432;11.350;2022-09-27T05:41:17;12.60;97.30
47779;DHT22;33538;48.432;11.350;2022-09-27T05:43:44;12.60;97.20
47779;DHT22;33538;48.432;11.350;2022-09-27T05:46:11;12.60;97.20
47779;DHT22;33538;48.432;11.350;2022-09-27T05:48:38;12.60;97.20
47779;DHT22;33538;48.432;11.350;2022-09-27T05:51:05;12.50;97.50
47779;DHT22;33538;48.432;11.350;2022-09-27T05:53:33;12.50;97.80
47779;DHT22;33538;48.432;11.350;2022-09-27T05:56:01;12.50;98.00
47779;DHT22;33538;48.432;11.350;2022-09-27T05:58:27;12.40;98.20
47779;DHT22;33538;48.432;11.350;2022-09-27T06:00:54;12.40;98.20
47779;DHT22;33538;48.432;11.350;2022-09-27T06:03:21;12.40;98.60
47779;DHT22;33538;48.432;11.350;2022-09-27T06:05:48;12.30;98.80
47779;DHT22;33538;48.432;11.350;2022-09-27T06:08:17;12.40;99.10
47779;DHT22;33538;48.432;11.350;2022-09-27T06:10:45;12.30;99.30
47779;DHT22;33538;48.432;11.350;2022-09-27T06:13:13;12.30;99.50
47779;DHT22;33538;48.432;11.350;2022-09-27T06:15:42;12.30;99.20
47779;DHT22;33538;48.432;11.350;2022-09-27T06:18:11;12.30;99.20
47779;DHT22;33538;48.432;11.350;2022-09-27T06:20:38;12.30;99.30
47779;DHT22;33538;48.432;11.350;2022-09-27T06:23:07;12.30;99.40
47779;DHT22;33538;48.432;11.350;2022-09-27T06:25:34;12.30;99.10
47779;DHT22;33538;48.432;11.350;2022-09-27T06:28:03;12.30;99.00
47779;DHT22;33538;48.432;11.350;2022-09-27T06:30:30;12.30;98.80
47779;DHT22;33538;48.432;11.350;2022-09-27T06:32:57;12.30;98.70
47779;DHT22;33538;48.432;11.350;2022-09-27T06:35:25;12.30;98.30
47779;DHT22;33538;48.432;11.350;2022-09-27T06:37:52;12.30;98.50
47779;DHT22;33538;48.432;11.350;2022-09-27T06:40:19;12.30;98.50
47779;DHT22;33538;48.432;11.350;2022-09-27T06:42:46;12.30;98.70
47779;DHT22;33538;48.432;11.350;2022-09-27T06:45:14;12.40;98.60
47779;DHT22;33538;48.432;11.350;2022-09-27T06:47:41;12.40;98.40
47779;DHT22;33538;48.432;11.350;2022-09-27T06:50:09;12.40;98.10
47779;DHT22;33538;48.432;11.350;2022-09-27T06:52:35;12.50;97.90
47779;DHT22;33538;48.432;11.350;2022-09-27T06:55:03;12.50;97.80
47779;DHT22;33538;48.432;11.350;2022-09-27T06:57:30;12.50;97.20
47779;DHT22;33538;48.432;11.350;2022-09-27T06:59:57;12.50;97.10
47779;DHT22;33538;48.432;11.350;2022-09-27T07:02:25;12.50;97.30
47779;DHT22;33538;48.432;11.350;2022-09-27T07:04:52;12.50;97.30
47779;DHT22;33538;48.432;11.350;2022-09-27T07:07:19;12.50;97.50
47779;DHT22;33538;48.432;11.350;2022-09-27T07:09:46;12.50;97.40
47779;DHT22;33538;48.432;11.350;2022-09-27T07:12:12;12.50;97.20
47779;DHT22;33538;48.432;11.350;2022-09-27T07:14:39;12.50;97.20
47779;DHT22;33538;48.432;11.350;2022-09-27T07:17:06;12.50;97.10
47779;DHT22;33538;48.432;11.350;2022-09-27T07:19:34;12.50;96.90
47779;DHT22;33538;48.432;11.350;2022-09-27T07:22:01;12.50;96.80
47779;DHT22;33538;48.432;11.350;2022-09-27T07:24:28;12.50;96.90
47779;DHT22;33538;48.432;11.350;2022-09-27T07:26:54;12.50;96.70
47779;DHT22;33538;48.432;11.350;2022-09-27T07:29:21;12.50;96.70
47779;DHT22;33538;48.432;11.350;2022-09-27T07:31:48;12.50;96.30
47779;DHT22;33538;48.432;11.350;2022-09-27T07:34:14;12.60;96.20
47779;DHT22;33538;48.432;11.350;2022-09-27T07:36:43;12.60;96.10
47779;DHT22;33538;48.432;11.350;2022-09-27T07:39:09;12.60;96.20
47779;DHT22;33538;48.432;11.350;2022-09-27T07:41:36;12.60;96.40
47779;DHT22;33538;48.432;11.350;2022-09-27T07:44:03;12.60;96.50
47779;DHT22;33538;48.432;11.350;2022-09-27T07:46:30;12.60;96.50
47779;DHT22;33538;48.432;11.350;2022-09-27T07:48:57;12.60;96.50
47779;DHT22;33538;48.432;11.350;2022-09-27T07:51:24;12.60;96.50
47779;DHT22;33538;48.432;11.350;2022-09-27T07:53:52;12.60;96.50
47779;DHT22;33538;48.432;11.350;2022-09-27T07:56:19;12.60;96.60
47779;DHT22;33538;48.432;11.350;2022-09-27T07:58:46;12.60;96.60
47779;DHT22;33538;48.432;11.350;2022-09-27T08:01:12;12.70;96.70
47779;DHT22;33538;48.432;11.350;2022-09-27T08:03:39;12.70;96.70
47779;DHT22;33538;48.432;11.350;2022-09-27T08:06:06;12.60;96.80
47779;DHT22;33538;48.432;11.350;2022-09-27T08:08:33;12.70;96.80
47779;DHT22;33538;48.432;11.350;2022-09-27T08:11:09;12.70;96.70
47779;DHT22;33538;48.432;11.350;2022-09-27T08:13:36;12.60;96.70
47779;DHT22;33538;48.432;11.350;2022-09-27T08:16:03;12.60;96.70
47779;DHT22;33538;48.432;11.350;2022-09-27T08:18:30;12.60;96.60
47779;DHT22;33538;48.432;11.350;2022-09-27T08:20:57;12.70;96.60
47779;DHT22;33538;48.432;11.350;2022-09-27T08:23:24;12.60;96.60
47779;DHT22;33538;48.432;11.350;2022-09-27T08:25:51;12.70;96.50
47779;DHT22;33538;48.432;11.350;2022-09-27T08:28:19;12.70;96.60
47779;DHT22;33538;48.432;11.350;2022-09-27T08:30:46;12.70;96.70
47779;DHT22;33538;48.432;11.350;2022-09-27T08:33:13;12.80;96.60
47779;DHT22;33538;48.432;11.350;2022-09-27T08:35:40;12.80;96.50
47779;DHT22;33538;48.432;11.350;2022-09-27T08:38:08;12.80;96.40
47779;DHT22;33538;48.432;11.350;2022-09-27T08:40:49;12.80;96.30
47779;DHT22;33538;48.432;11.350;2022-09-27T08:43:24;12.80;96.30
47779;DHT22;33538;48.432;11.350;2022-09-27T08:46:01;12.80;96.20
47779;DHT22;33538;48.432;11.350;2022-09-27T08:48:30;12.80;96.10
47779;DHT22;33538;48.432;11.350;2022-09-27T08:51:00;12.90;96.10
47779;DHT22;33538;48.432;11.350;2022-09-27T08:53:33;12.80;96.00
47779;DHT22;33538;48.432;11.350;2022-09-27T08:56:01;12.80;95.90
47779;DHT22;33538;48.432;11.350;2022-09-27T08:58:32;12.80;95.80
47779;DHT22;33538;48.432;11.350;2022-09-27T09:01:02;12.80;95.70
47779;DHT22;33538;48.432;11.350;2022-09-27T09:03:30;12.90;95.60
47779;DHT22;33538;48.432;11.350;2022-09-27T09:06:09;12.90;95.70
47779;DHT22;33538;48.432;11.350;2022-09-27T09:08:44;12.90;95.60
47779;DHT22;33538;48.432;11.350;2022-09-27T09:11:25;12.90;95.80
47779;DHT22;33538;48.432;11.350;2022-09-27T09:17:06;12.90;95.20
47779;DHT22;33538;48.432;11.350;2022-09-27T09:19:56;12.90;95.10
47779;DHT22;33538;48.432;11.350;2022-09-27T09:22:35;13.00;95.10
47779;DHT22;33538;48.432;11.350;2022-09-27T09:28:06;13.00;95.00
47779;DHT22;33538;48.432;11.350;2022-09-27T09:30:45;13.00;95.00
47779;DHT22;33538;48.432;11.350;2022-09-27T09:33:23;13.00;94.90
47779;DHT22;33538;48.432;11.350;2022-09-27T09:35:54;13.00;94.80
47779;DHT22;33538;48.432;11.350;2022-09-27T09:38:25;13.00;94.80
47779;DHT22;33538;48.432;11.350;2022-09-27T09:40:58;13.10;94.80
47779;DHT22;33538;48.432;11.350;2022-09-27T09:43:30;13.10;94.80
47779;DHT22;33538;48.432;11.350;2022-09-27T09:46:02;13.10;94.90
47779;DHT22;33538;48.432;11.350;2022-09-27T09:48:37;13.10;94.90
47779;DHT22;33538;48.432;11.350;2022-09-27T09:51:12;13.10;94.90
47779;DHT22;33538;48.432;11.350;2022-09-27T09:53:43;13.20;94.90
47779;DHT22;33538;48.432;11.350;2022-09-27T09:56:16;13.20;95.00
47779;DHT22;33538;48.432;11.350;2022-09-27T09:58:46;13.20;95.00
47779;DHT22;33538;48.432;11.350;2022-09-27T10:01:18;13.30;95.10
47779;DHT22;33538;48.432;11.350;2022-09-27T10:03:45;13.30;95.10
47779;DHT22;33538;48.432;11.350;2022-09-27T10:06:13;13.30;95.00
47779;DHT22;33538;48.432;11.350;2022-09-27T10:08:41;13.30;94.90
47779;DHT22;33538;48.432;11.350;2022-09-27T10:11:16;13.30;94.80
47779;DHT22;33538;48.432;11.350;2022-09-27T10:13:44;13.30;94.80
47779;DHT22;33538;48.432;11.350;2022-09-27T10:16:14;13.30;94.90
47779;DHT22;33538;48.432;11.350;2022-09-27T10:18:42;13.30;94.90
47779;DHT22;33538;48.432;11.350;2022-09-27T10:21:19;13.30;94.80
47779;DHT22;33538;48.432;11.350;2022-09-27T10:24:07;13.30;94.70
47779;DHT22;33538;48.432;11.350;2022-09-27T10:26:42;13.30;94.40
47779;DHT22;33538;48.432;11.350;2022-09-27T10:29:23;13.30;94.30
47779;DHT22;33538;48.432;11.350;2022-09-27T10:31:52;13.30;94.30
47779;DHT22;33538;48.432;11.350;2022-09-27T10:34:29;13.30;94.40
47779;DHT22;33538;48.432;11.350;2022-09-27T10:37:13;13.30;94.40
47779;DHT22;33538;48.432;11.350;2022-09-27T10:39:40;13.40;94.50
47779;DHT22;33538;48.432;11.350;2022-09-27T10:42:19;13.40;94.30
47779;DHT22;33538;48.432;11.350;2022-09-27T10:44:46;13.40;94.10
47779;DHT22;33538;48.432;11.350;2022-09-27T10:47:18;13.40;93.90
47779;DHT22;33538;48.432;11.350;2022-09-27T10:49:46;13.40;93.60
47779;DHT22;33538;48.432;11.350;2022-09-27T10:52:15;13.40;93.10
47779;DHT22;33538;48.432;11.350;2022-09-27T10:54:52;13.40;93.00
47779;DHT22;33538;48.432;11.350;2022-09-27T10:57:20;13.40;93.20
47779;DHT22;33538;48.432;11.350;2022-09-27T10:59:52;13.40;93.50
47779;DHT22;33538;48.432;11.350;2022-09-27T11:02:24;13.40;93.60
47779;DHT22;33538;48.432;11.350;2022-09-27T11:05:07;13.40;93.80
47779;DHT22;33538;48.432;11.350;2022-09-27T11:07:47;13.40;93.90
47779;DHT22;33538;48.432;11.350;2022-09-27T11:10:22;13.40;93.80
47779;DHT22;33538;48.432;11.350;2022-09-27T11:13:10;13.40;93.80
47779;DHT22;33538;48.432;11.350;2022-09-27T11:15:50;13.40;93.70
47779;DHT22;33538;48.432;11.350;2022-09-27T11:18:29;13.40;94.00
47779;DHT22;33538;48.432;11.350;2022-09-27T11:21:04;13.40;93.10
47779;DHT22;33538;48.432;11.350;2022-09-27T11:23:55;13.50;92.80
47779;DHT22;33538;48.432;11.350;2022-09-27T11:26:35;13.40;92.40
47779;DHT22;33538;48.432;11.350;2022-09-27T11:29:16;13.40;92.20
47779;DHT22;33538;48.432;11.350;2022-09-27T11:31:58;13.40;92.00
47779;DHT22;33538;48.432;11.350;2022-09-27T11:34:39;13.40;91.70
47779;DHT22;33538;48.432;11.350;2022-09-27T11:37:15;13.40;91.70
47779;DHT22;33538;48.432;11.350;2022-09-27T11:40:13;13.40;91.20
47779;DHT22;33538;48.432;11.350;2022-09-27T11:43:02;13.40;91.30
47779;DHT22;33538;48.432;11.350;2022-09-27T11:45:41;13.40;91.60
47779;DHT22;33538;48.432;11.350;2022-09-27T11:48:52;13.40;91.60
47779;DHT22;33538;48.432;11.350;2022-09-27T11:51:30;13.40;91.70
47779;DHT22;33538;48.432;11.350;2022-09-27T11:54:16;13.40;91.80
47779;DHT22;33538;48.432;11.350;2022-09-27T11:56:46;13.50;92.00
47779;DHT22;33538;48.432;11.350;2022-09-27T11:59:34;13.50;92.40
47779;DHT22;33538;48.432;11.350;2022-09-27T12:02:19;13.50;92.60
47779;DHT22;33538;48.432;11.350;2022-09-27T12:05:01;13.50;92.90
47779;DHT22;33538;48.432;11.350;2022-09-27T12:07:37;13.50;93.10
47779;DHT22;33538;48.432;11.350;2022-09-27T12:10:11;13.50;93.10
47779;DHT22;33538;48.432;11.350;2022-09-27T12:12:40;13.50;93.00
47779;DHT22;33538;48.432;11.350;2022-09-27T12:15:13;13.60;93.30
47779;DHT22;33538;48.432;11.350;2022-09-27T12:17:43;13.60;93.40
47779;DHT22;33538;48.432;11.350;2022-09-27T12:20:17;13.60;93.20
47779;DHT22;33538;48.432;11.350;2022-09-27T12:22:52;13.60;93.20
47779;DHT22;33538;48.432;11.350;2022-09-27T12:25:28;13.60;93.40
47779;DHT22;33538;48.432;11.350;2022-09-27T12:27:59;13.60;93.50
47779;DHT22;33538;48.432;11.350;2022-09-27T12:30:28;13.60;93.60
47779;DHT22;33538;48.432;11.350;2022-09-27T12:33:03;13.60;93.50
47779;DHT22;33538;48.432;11.350;2022-09-27T12:35:38;13.60;93.60
47779;DHT22;33538;48.432;11.350;2022-09-27T12:38:12;13.60;93.40
47779;DHT22;33538;48.432;11.350;2022-09-27T12:40:43;13.60;93.20
47779;DHT22;33538;48.432;11.350;2022-09-27T12:43:15;13.60;93.10
47779;DHT22;33538;48.432;11.350;2022-09-27T12:45:50;13.60;93.00
47779;DHT22;33538;48.432;11.350;2022-09-27T12:48:24;13.60;92.90
47779;DHT22;33538;48.432;11.350;2022-09-27T12:51:02;13.60;92.90
47779;DHT22;33538;48.432;11.350;2022-09-27T12:53:42;13.60;93.00
47779;DHT22;33538;48.432;11.350;2022-09-27T12:56:24;13.60;93.00
47779;DHT22;33538;48.432;11.350;2022-09-27T12:59:20;13.70;93.10
47779;DHT22;33538;48.432;11.350;2022-09-27T13:02:02;13.70;93.10
47779;DHT22;33538;48.432;11.350;2022-09-27T13:05:02;13.60;93.10
47779;DHT22;33538;48.432;11.350;2022-09-27T13:07:41;13.70;93.20
47779;DHT22;33538;48.432;11.350;2022-09-27T13:10:39;13.70;93.10
47779;DHT22;33538;48.432;11.350;2022-09-27T13:13:09;13.70;93.10
47779;DHT22;33538;48.432;11.350;2022-09-27T13:15:38;13.70;92.90
47779;DHT22;33538;48.432;11.350;2022-09-27T13:18:27;13.70;92.70
47779;DHT22;33538;48.432;11.350;2022-09-27T13:20:54;13.70;92.60
47779;DHT22;33538;48.432;11.350;2022-09-27T13:23:48;13.70;92.30
47779;DHT22;33538;48.432;11.350;2022-09-27T13:26:47;13.70;92.50
47779;DHT22;33538;48.432;11.350;2022-09-27T13:29:27;13.70;92.50
47779;DHT22;33538;48.432;11.350;2022-09-27T13:32:10;13.70;92.30
47779;DHT22;33538;48.432;11.350;2022-09-27T13:34:41;13.70;92.40
47779;DHT22;33538;48.432;11.350;2022-09-27T13:37:40;13.70;92.40
47779;DHT22;33538;48.432;11.350;2022-09-27T13:40:25;13.70;92.40
47779;DHT22;33538;48.432;11.350;2022-09-27T13:45:50;13.70;92.30
47779;DHT22;33538;48.432;11.350;2022-09-27T13:48:23;13.70;92.30
47779;DHT22;33538;48.432;11.350;2022-09-27T13:50:56;13.70;92.50
47779;DHT22;33538;48.432;11.350;2022-09-27T13:53:28;13.70;92.30
47779;DHT22;33538;48.432;11.350;2022-09-27T13:55:55;13.70;92.50
47779;DHT22;33538;48.432;11.350;2022-09-27T13:58:46;13.70;92.30
47779;DHT22;33538;48.432;11.350;2022-09-27T14:01:19;13.70;92.20
47779;DHT22;33538;48.432;11.350;2022-09-27T14:03:49;13.70;92.10
47779;DHT22;33538;48.432;11.350;2022-09-27T14:06:19;13.70;92.00
47779;DHT22;33538;48.432;11.350;2022-09-27T14:08:50;13.70;92.00
47779;DHT22;33538;48.432;11.350;2022-09-27T14:11:22;13.70;91.30
47779;DHT22;33538;48.432;11.350;2022-09-27T14:13:51;13.70;91.60
47779;DHT22;33538;48.432;11.350;2022-09-27T14:16:18;13.70;91.50
47779;DHT22;33538;48.432;11.350;2022-09-27T14:18:48;13.70;91.50
47779;DHT22;33538;48.432;11.350;2022-09-27T14:21:26;13.70;91.30
47779;DHT22;33538;48.432;11.350;2022-09-27T14:24:19;13.70;91.40
47779;DHT22;33538;48.432;11.350;2022-09-27T14:26:45;13.70;90.90
47779;DHT22;33538;48.432;11.350;2022-09-27T14:29:17;13.80;90.60
47779;DHT22;33538;48.432;11.350;2022-09-27T14:31:44;13.70;90.20
47779;DHT22;33538;48.432;11.350;2022-09-27T14:34:11;13.70;90.00
47779;DHT22;33538;48.432;11.350;2022-09-27T14:36:38;13.70;89.80
47779;DHT22;33538;48.432;11.350;2022-09-27T14:39:12;13.70;89.30
47779;DHT22;33538;48.432;11.350;2022-09-27T14:41:40;13.70;88.90
47779;DHT22;33538;48.432;11.350;2022-09-27T14:44:13;13.70;88.00
47779;DHT22;33538;48.432;11.350;2022-09-27T14:46:42;13.70;87.80
47779;DHT22;33538;48.432;11.350;2022-09-27T14:49:18;13.70;86.90
47779;DHT22;33538;48.432;11.350;2022-09-27T14:51:50;13.60;87.10
47779;DHT22;33538;48.432;11.350;2022-09-27T14:54:21;13.60;87.40
47779;DHT22;33538;48.432;11.350;2022-09-27T14:56:48;13.60;87.40
47779;DHT22;33538;48.432;11.350;2022-09-27T14:59:22;13.60;87.90
47779;DHT22;33538;48.432;11.350;2022-09-27T15:01:51;13.60;88.50
47779;DHT22;33538;48.432;11.350;2022-09-27T15:04:19;13.60;89.40
47779;DHT22;33538;48.432;11.350;2022-09-27T15:06:48;13.50;88.90
47779;DHT22;33538;48.432;11.350;2022-09-27T15:09:16;13.50;88.90
47779;DHT22;33538;48.432;11.350;2022-09-27T15:11:45;13.50;88.90
47779;DHT22;33538;48.432;11.350;2022-09-27T15:14:15;13.50;89.30
47779;DHT22;33538;48.432;11.350;2022-09-27T15:16:44;13.50;89.60
47779;DHT22;33538;48.432;11.350;2022-09-27T15:19:15;13.50;90.10
47779;DHT22;33538;48.432;11.350;2022-09-27T15:21:43;13.40;90.60
47779;DHT22;33538;48.432;11.350;2022-09-27T15:24:35;13.40;91.00
47779;DHT22;33538;48.432;11.350;2022-09-27T15:27:02;13.40;91.10
47779;DHT22;33538;48.432;11.350;2022-09-27T15:29:29;13.30;94.00
47779;DHT22;33538;48.432;11.350;2022-09-27T15:32:02;13.20;98.10
47779;DHT22;33538;48.432;11.350;2022-09-27T15:34:31;13.10;98.00
47779;DHT22;33538;48.432;11.350;2022-09-27T15:36:59;13.10;97.60
47779;DHT22;33538;48.432;11.350;2022-09-27T15:39:29;13.10;97.30
47779;DHT22;33538;48.432;11.350;2022-09-27T15:42:05;13.10;96.10
47779;DHT22;33538;48.432;11.350;2022-09-27T15:44:44;13.10;97.50
47779;DHT22;33538;48.432;11.350;2022-09-27T15:47:39;13.00;97.40
47779;DHT22;33538;48.432;11.350;2022-09-27T15:50:34;13.10;97.00
47779;DHT22;33538;48.432;11.350;2022-09-27T15:53:02;13.00;96.70
47779;DHT22;33538;48.432;11.350;2022-09-27T15:55:32;13.00;96.10
47779;DHT22;33538;48.432;11.350;2022-09-27T15:58:02;13.00;96.20
47779;DHT22;33538;48.432;11.350;2022-09-27T16:00:29;12.90;95.70